Time;durP1;ratioP1;P1;durP2;ratioP2;P2;SDS_P1;SDS_P2;PMS_P1;PMS_P2;Temp;Humidity;BMP_temperature;BMP_pressure;BME280_temperature;BME280_humidity;BME280_pressure;Samples;Min_cycle;Max_cycle;Signal;HPM_P1;HPM_P2
2023/10/04 00:01:21;;;;;;;0.32;0.32;;;14.10;99.90;;;;;;4966918;28;20039;-79
2023/10/04 00:03:47;;;;;;;0.43;0.13;;;14.00;99.90;;;;;;4969030;28;20034;-79
2023/10/04 00:06:13;;;;;;;0.57;0.40;;;14.00;99.90;;;;;;4965543;28;20038;-79
2023/10/04 00:08:39;;;;;;;0.55;0.55;;;14.00;99.90;;;;;;4974344;28;20471;-80
2023/10/04 00:11:06;;;;;;;0.30;0.30;;;13.90;99.90;;;;;;4971932;28;20046;-79
2023/10/04 00:13:33;;;;;;;0.32;0.32;;;13.80;99.90;;;;;;4969288;28;20045;-79
2023/10/04 00:16:00;;;;;;;1.38;0.52;;;13.70;99.90;;;;;;4968467;28;20027;-79
2023/10/04 00:18:27;;;;;;;0.10;0.10;;;13.70;99.90;;;;;;4958508;28;20049;-79
2023/10/04 00:20:55;;;;;;;0.28;0.28;;;13.70;99.90;;;;;;4955274;28;20026;-80
2023/10/04 00:23:21;;;;;;;0.30;0.30;;;13.60;99.90;;;;;;4953563;28;20046;-79
2023/10/04 00:25:47;;;;;;;0.60;0.43;;;13.50;99.90;;;;;;4962900;28;20027;-79
2023/10/04 00:28:14;;;;;;;7.22;1.25;;;13.50;99.90;;;;;;4964921;28;20041;-79
2023/10/04 00:30:43;;;;;;;0.70;0.70;;;13.40;99.90;;;;;;4965560;28;20038;-79
2023/10/04 00:33:09;;;;;;;0.20;0.20;;;13.50;99.90;;;;;;4961572;28;20058;-79
2023/10/04 00:35:40;;;;;;;1.17;0.55;;;13.50;99.90;;;;;;4969078;28;20026;-80
2023/10/04 00:38:08;;;;;;;0.98;0.57;;;13.40;99.90;;;;;;4953610;28;20365;-79
2023/10/04 00:40:37;;;;;;;0.30;0.20;;;13.40;99.90;;;;;;4960806;28;20034;-80
2023/10/04 00:43:11;;;;;;;1.60;0.50;;;13.40;99.90;;;;;;4973699;28;20050;-79
2023/10/04 00:45:38;;;;;;;0.45;0.35;;;13.40;99.90;;;;;;4975047;28;20030;-80
2023/10/04 00:48:17;;;;;;;0.38;0.38;;;13.30;99.90;;;;;;4969491;28;20047;-80
2023/10/04 00:50:44;;;;;;;0.30;0.30;;;13.30;99.90;;;;;;4963881;28;20047;-80
2023/10/04 00:53:22;;;;;;;0.30;0.17;;;13.20;99.90;;;;;;4975096;28;20058;-80
2023/10/04 00:55:52;;;;;;;1.10;0.65;;;13.20;99.90;;;;;;4955489;28;20045;-80
2023/10/04 00:58:19;;;;;;;0.80;0.52;;;13.20;99.90;;;;;;4968357;28;20041;-80
2023/10/04 01:00:47;;;;;;;0.63;0.47;;;13.10;99.90;;;;;;4962108;28;20031;-80
2023/10/04 01:03:23;;;;;;;0.88;0.63;;;13.10;99.90;;;;;;4975437;28;20039;-79
2023/10/04 01:05:51;;;;;;;1.20;0.77;;;13.00;99.90;;;;;;4969786;28;20035;-80
2023/10/04 01:08:22;;;;;;;1.17;1.08;;;12.80;99.90;;;;;;4964865;28;20038;-79
2023/10/04 01:10:50;;;;;;;0.10;0.10;;;12.70;99.90;;;;;;4962993;28;20035;-79
2023/10/04 01:13:21;;;;;;;0.75;0.60;;;12.60;99.90;;;;;;4931711;28;20034;-80
2023/10/04 01:15:54;;;;;;;;;;;12.70;99.90;;;;;;4970111;28;20421;-79
2023/10/04 01:18:22;;;;;;;0.15;0.15;;;12.60;99.90;;;;;;4965322;28;19915;-80
2023/10/04 01:20:49;;;;;;;0.10;0.10;;;12.50;99.90;;;;;;4947781;28;20065;-79
2023/10/04 01:23:16;;;;;;;0.10;0.10;;;12.40;99.90;;;;;;4978179;28;20287;-79
2023/10/04 01:25:44;;;;;;;2.10;1.00;;;12.40;99.90;;;;;;4983571;28;20065;-79
2023/10/04 01:28:13;;;;;;;0.60;0.38;;;12.40;99.90;;;;;;4942244;28;20042;-80
2023/10/04 01:30:41;;;;;;;0.85;0.47;;;12.20;99.90;;;;;;4959492;28;20042;-80
2023/10/04 01:33:15;;;;;;;5.45;0.68;;;12.20;99.90;;;;;;4968259;28;20054;-79
2023/10/04 01:35:48;;;;;;;0.85;0.40;;;12.00;99.90;;;;;;4976498;28;20145;-80
2023/10/04 01:38:15;;;;;;;0.50;0.22;;;12.00;99.90;;;;;;4956240;28;20062;-79
2023/10/04 01:40:47;;;;;;;1.17;0.40;;;11.90;99.90;;;;;;4966292;28;20038;-79
2023/10/04 01:43:17;;;;;;;0.10;0.10;;;11.90;99.90;;;;;;4952234;28;20046;-79
2023/10/04 01:45:44;;;;;;;1.38;1.27;;;11.80;99.90;;;;;;4977592;28;20345;-79
2023/10/04 01:48:10;;;;;;;0.10;0.10;;;11.80;99.90;;;;;;4972382;28;20054;-78
2023/10/04 01:50:36;;;;;;;0.30;0.30;;;11.70;99.90;;;;;;4964018;28;20035;-79
2023/10/04 01:53:04;;;;;;;0.28;0.28;;;11.60;99.90;;;;;;4966759;28;20030;-79
2023/10/04 01:55:31;;;;;;;1.67;0.68;;;11.60;99.90;;;;;;4968039;28;20069;-79
2023/10/04 01:57:58;;;;;;;0.35;0.35;;;11.70;99.90;;;;;;4965422;28;20055;-79
2023/10/04 02:00:28;;;;;;;0.10;0.10;;;11.70;99.90;;;;;;4968479;28;20055;-78
2023/10/04 02:02:54;;;;;;;0.10;0.10;;;11.70;99.90;;;;;;4944877;28;20054;-78
2023/10/04 02:05:37;;;;;;;0.63;0.57;;;11.60;99.90;;;;;;4944744;28;20031;-78
2023/10/04 02:08:10;;;;;;;0.10;0.10;;;11.50;99.90;;;;;;4956344;28;20054;-78
2023/10/04 02:10:36;;;;;;;0.60;0.47;;;11.40;99.90;;;;;;4963723;28;20437;-79
2023/10/04 02:13:06;;;;;;;0.90;0.50;;;11.40;99.90;;;;;;4969083;28;20030;-78
2023/10/04 02:15:37;;;;;;;0.10;0.10;;;11.40;99.90;;;;;;4971863;28;20035;-79
2023/10/04 02:18:04;;;;;;;0.30;0.30;;;11.40;99.90;;;;;;4967478;28;20419;-79
2023/10/04 02:20:34;;;;;;;0.10;0.10;;;11.40;99.90;;;;;;4976481;28;20077;-78
2023/10/04 02:23:03;;;;;;;0.20;0.20;;;11.40;99.90;;;;;;4974341;28;20038;-78
2023/10/04 02:25:29;;;;;;;0.38;0.38;;;11.50;99.90;;;;;;4973471;28;20046;-79
2023/10/04 02:28:09;;;;;;;0.77;0.77;;;11.40;99.90;;;;;;4973497;28;20388;-79
2023/10/04 02:30:40;;;;;;;0.40;0.32;;;11.50;99.90;;;;;;4960218;28;20055;-79
2023/10/04 02:33:13;;;;;;;0.08;0.08;;;11.40;99.90;;;;;;4930219;28;20166;-79
2023/10/04 02:35:44;;;;;;;0.35;0.32;;;11.60;99.90;;;;;;4930025;28;20043;-77
2023/10/04 02:38:16;;;;;;;0.43;0.43;;;11.50;99.90;;;;;;4966427;28;20361;-77
2023/10/04 02:40:43;;;;;;;0.20;0.20;;;11.40;99.90;;;;;;4953622;28;20038;-77
2023/10/04 02:43:11;;;;;;;0.32;0.25;;;11.50;99.90;;;;;;4966944;28;20437;-78
2023/10/04 02:45:37;;;;;;;3.65;0.85;;;11.50;99.90;;;;;;4945824;28;20047;-77
2023/10/04 02:48:04;;;;;;;4.57;2.08;;;11.50;99.90;;;;;;4945172;28;20035;-78
2023/10/04 02:50:30;;;;;;;0.30;0.30;;;11.50;99.90;;;;;;4971550;28;20456;-78
2023/10/04 02:52:57;;;;;;;0.60;0.35;;;11.40;99.90;;;;;;4945810;28;20082;-78
2023/10/04 02:55:26;;;;;;;0.10;0.10;;;11.40;99.90;;;;;;4957619;28;20051;-78
2023/10/04 02:57:53;;;;;;;0.55;0.55;;;11.30;99.90;;;;;;4961550;28;20050;-78
2023/10/04 03:00:20;;;;;;;0.35;0.30;;;11.20;99.90;;;;;;4967954;28;20420;-78
2023/10/04 03:02:52;;;;;;;0.38;0.30;;;11.30;99.90;;;;;;4955768;28;20054;-78
2023/10/04 03:05:21;;;;;;;2.00;1.20;;;11.30;99.90;;;;;;4938575;28;20507;-79
2023/10/04 03:07:52;;;;;;;1.38;1.23;;;11.30;99.90;;;;;;4948778;28;20055;-79
2023/10/04 03:10:24;;;;;;;0.68;0.68;;;11.20;99.90;;;;;;4956519;28;20039;-78
2023/10/04 03:12:56;;;;;;;0.28;0.28;;;11.20;99.90;;;;;;4956566;28;20094;-79
2023/10/04 03:15:23;;;;;;;0.40;0.40;;;11.20;99.90;;;;;;4945606;28;20123;-79
2023/10/04 03:17:52;;;;;;;0.30;0.30;;;11.10;99.90;;;;;;4959877;28;20047;-78
2023/10/04 03:20:28;;;;;;;0.15;0.15;;;11.00;99.90;;;;;;4938654;28;20043;-79
2023/10/04 03:22:57;;;;;;;0.85;0.65;;;10.90;99.90;;;;;;4950709;28;20050;-79
2023/10/04 03:25:25;;;;;;;0.50;0.22;;;11.00;99.90;;;;;;4973915;28;20038;-78
2023/10/04 03:27:52;;;;;;;0.90;0.45;;;11.00;99.90;;;;;;4940102;28;20369;-78
2023/10/04 03:30:20;;;;;;;0.47;0.47;;;11.00;99.90;;;;;;4951931;28;20050;-78
2023/10/04 03:32:56;;;;;;;0.15;0.15;;;10.90;99.90;;;;;;4959756;28;20047;-78
2023/10/04 03:35:26;;;;;;;0.30;0.30;;;10.90;99.90;;;;;;4954737;28;20055;-78
2023/10/04 03:37:58;;;;;;;0.30;0.30;;;10.80;99.90;;;;;;4950009;28;20055;-78
2023/10/04 03:40:34;;;;;;;0.20;0.20;;;10.80;99.90;;;;;;4954406;28;20054;-78
2023/10/04 03:43:07;;;;;;;0.30;0.30;;;10.80;99.90;;;;;;4966083;28;20477;-78
2023/10/04 03:45:41;;;;;;;0.20;0.20;;;10.70;99.90;;;;;;4964345;28;20055;-78
2023/10/04 03:48:15;;;;;;;0.10;0.10;;;10.70;99.90;;;;;;4957036;28;20043;-78
2023/10/04 03:50:48;;;;;;;0.20;0.10;;;10.60;99.90;;;;;;4949196;28;20054;-79
2023/10/04 03:53:20;;;;;;;0.17;0.17;;;10.60;99.90;;;;;;4965156;28;20047;-79
2023/10/04 03:55:47;;;;;;;0.55;0.32;;;10.70;99.90;;;;;;4953853;28;20047;-78
2023/10/04 03:58:19;;;;;;;0.80;0.55;;;10.80;99.90;;;;;;4955277;28;20464;-79
2023/10/04 04:00:46;;;;;;;0.10;0.10;;;10.90;99.90;;;;;;4958297;28;20047;-79
2023/10/04 04:03:12;;;;;;;0.10;0.10;;;10.90;99.90;;;;;;4971974;28;20038;-80
2023/10/04 04:05:41;;;;;;;0.30;0.30;;;11.00;99.90;;;;;;4967007;28;20050;-80
2023/10/04 04:08:08;;;;;;;4.47;1.13;;;11.10;99.90;;;;;;4958709;28;20050;-80
2023/10/04 04:10:38;;;;;;;0.10;0.10;;;11.10;99.90;;;;;;4969699;28;20028;-79
2023/10/04 04:13:05;;;;;;;1.23;1.13;;;11.10;99.90;;;;;;4973991;28;20058;-79
2023/10/04 04:15:34;;;;;;;0.57;0.30;;;11.00;99.90;;;;;;4961284;28;20038;-78
2023/10/04 04:18:06;;;;;;;0.40;0.40;;;11.00;99.90;;;;;;4960470;28;20046;-78
2023/10/04 04:20:35;;;;;;;0.50;0.50;;;11.00;99.90;;;;;;4962536;28;20480;-79
2023/10/04 04:23:06;;;;;;;0.43;0.30;;;11.10;99.90;;;;;;4966894;28;20058;-79
2023/10/04 04:25:33;;;;;;;0.40;0.28;;;11.00;99.90;;;;;;4948158;28;20050;-78
2023/10/04 04:28:01;;;;;;;1.40;0.40;;;11.00;99.90;;;;;;4963956;28;20624;-79
2023/10/04 04:30:31;;;;;;;0.95;0.47;;;11.00;99.90;;;;;;4949994;28;20473;-78
2023/10/04 04:33:02;;;;;;;0.22;0.22;;;10.90;99.90;;;;;;4963805;28;20059;-79
2023/10/04 04:35:47;;;;;;;0.10;0.10;;;10.90;99.90;;;;;;4932993;29;20055;-78
2023/10/04 04:40:48;;;;;;;1.30;1.17;;;10.90;99.90;;;;;;4947273;29;20043;-79
2023/10/04 04:43:36;;;;;;;0.57;0.57;;;10.90;99.90;;;;;;4926969;29;20072;-79
2023/10/04 04:46:15;;;;;;;0.40;0.40;;;10.90;99.90;;;;;;4928251;29;20046;-79
2023/10/04 04:48:42;;;;;;;0.25;0.25;;;10.90;99.90;;;;;;4920633;29;20051;-79
2023/10/04 04:51:14;;;;;;;0.70;0.45;;;11.00;99.90;;;;;;4932801;29;20047;-80
2023/10/04 04:53:50;;;;;;;0.65;0.55;;;11.00;99.90;;;;;;4932566;29;20048;-79
2023/10/04 04:56:20;;;;;;;0.17;0.17;;;11.00;99.90;;;;;;4933608;29;20048;-78
2023/10/04 04:58:49;;;;;;;0.50;0.50;;;11.00;99.90;;;;;;4907864;29;20062;-79
2023/10/04 05:01:16;;;;;;;0.30;0.30;;;11.10;99.90;;;;;;4924674;29;20122;-79
2023/10/04 05:03:50;;;;;;;1.13;1.00;;;11.10;99.90;;;;;;4929540;29;20383;-79
2023/10/04 05:06:25;;;;;;;2.05;1.05;;;11.10;99.90;;;;;;4926426;29;20074;-78
2023/10/04 05:08:54;;;;;;;0.10;0.10;;;11.10;99.90;;;;;;4927386;29;20046;-79
2023/10/04 05:11:21;;;;;;;0.50;0.30;;;11.20;99.90;;;;;;4943961;29;20027;-78
2023/10/04 05:13:48;;;;;;;0.95;0.40;;;11.30;99.90;;;;;;4932911;29;20055;-78
2023/10/04 05:16:14;;;;;;;0.55;0.40;;;11.30;99.90;;;;;;4944483;28;20050;-79
2023/10/04 05:18:40;;;;;;;1.58;1.00;;;11.30;99.90;;;;;;4938933;29;20023;-79
2023/10/04 05:21:10;;;;;;;0.57;0.50;;;11.40;99.90;;;;;;4941570;29;20039;-78
2023/10/04 05:23:36;;;;;;;0.63;0.63;;;11.40;99.90;;;;;;4927240;29;20048;-79
2023/10/04 05:26:04;;;;;;;5.10;0.95;;;11.50;99.90;;;;;;4946085;29;20036;-79
2023/10/04 05:28:30;;;;;;;4.30;0.95;;;11.50;99.90;;;;;;4945186;29;20043;-79
2023/10/04 05:30:57;;;;;;;0.50;0.50;;;11.50;99.90;;;;;;4940123;29;20477;-79
2023/10/04 05:33:23;;;;;;;0.63;0.63;;;11.50;99.90;;;;;;4948861;28;20397;-79
2023/10/04 05:35:55;;;;;;;0.10;0.10;;;11.60;99.90;;;;;;4970912;28;20472;-80
2023/10/04 05:38:22;;;;;;;1.80;1.70;;;11.60;99.90;;;;;;4963394;28;20392;-80
2023/10/04 05:40:50;;;;;;;0.88;0.88;;;11.70;99.90;;;;;;4955947;28;20030;-79
2023/10/04 05:43:17;;;;;;;1.45;1.25;;;11.70;99.90;;;;;;4963406;28;20039;-80
2023/10/04 05:45:47;;;;;;;0.10;0.10;;;11.80;99.90;;;;;;4971324;28;20053;-79
2023/10/04 05:48:14;;;;;;;0.50;0.50;;;11.90;99.90;;;;;;4969543;28;20491;-79
2023/10/04 05:50:40;;;;;;;1.15;0.35;;;11.90;99.90;;;;;;4951007;28;20481;-80
2023/10/04 05:53:08;;;;;;;1.23;1.13;;;11.90;99.90;;;;;;4947790;28;20051;-79
2023/10/04 05:55:36;;;;;;;0.10;0.10;;;11.90;99.90;;;;;;4955569;28;20054;-80
2023/10/04 05:58:10;;;;;;;3.33;1.13;;;11.90;99.90;;;;;;4956709;28;20047;-80
2023/10/04 06:00:42;;;;;;;0.32;0.32;;;11.90;99.90;;;;;;4952224;28;20035;-79
2023/10/04 06:03:15;;;;;;;0.65;0.40;;;12.00;99.90;;;;;;4979781;28;20388;-79
2023/10/04 06:05:42;;;;;;;1.00;0.80;;;12.00;99.90;;;;;;4954056;28;20050;-79
2023/10/04 06:08:18;;;;;;;0.10;0.10;;;12.10;99.90;;;;;;4963366;28;20363;-79
2023/10/04 06:10:50;;;;;;;1.48;0.68;;;12.00;99.90;;;;;;4966611;28;20250;-79
2023/10/04 06:13:17;;;;;;;0.98;0.70;;;12.10;99.90;;;;;;4947195;28;20051;-78
2023/10/04 06:15:46;;;;;;;1.02;0.95;;;12.00;99.90;;;;;;4964673;28;20502;-79
2023/10/04 06:18:13;;;;;;;0.75;0.60;;;12.10;99.90;;;;;;4975903;28;20047;-77
2023/10/04 06:20:43;;;;;;;0.93;0.93;;;12.10;99.90;;;;;;4967351;28;20388;-79
2023/10/04 06:23:11;;;;;;;0.70;0.40;;;12.10;99.90;;;;;;4954804;28;20143;-79
2023/10/04 06:25:44;;;;;;;1.35;1.25;;;12.00;99.90;;;;;;4984076;28;20034;-79
2023/10/04 06:28:10;;;;;;;1.92;0.50;;;12.10;99.90;;;;;;4973420;28;20035;-79
2023/10/04 06:30:38;;;;;;;1.13;0.65;;;12.10;99.90;;;;;;4970198;28;20027;-78
2023/10/04 06:33:06;;;;;;;2.28;1.13;;;12.10;99.90;;;;;;4965933;28;20039;-79
2023/10/04 06:35:32;;;;;;;0.60;0.47;;;12.10;99.90;;;;;;4973346;28;20051;-79
2023/10/04 06:38:05;;;;;;;0.73;0.65;;;12.20;99.90;;;;;;4978771;28;20065;-78
2023/10/04 06:40:32;;;;;;;1.17;0.80;;;12.30;99.90;;;;;;4968475;28;20057;-77
2023/10/04 06:43:00;;;;;;;1.42;1.30;;;12.30;99.90;;;;;;4965730;28;20046;-78
2023/10/04 06:45:27;;;;;;;1.70;0.95;;;12.40;99.90;;;;;;4974018;28;20058;-78
2023/10/04 06:47:55;;;;;;;0.88;0.85;;;12.50;99.90;;;;;;4977428;28;20034;-80
2023/10/04 06:50:28;;;;;;;0.77;0.75;;;12.70;99.90;;;;;;4959552;28;20054;-80
2023/10/04 06:52:57;;;;;;;4.47;1.95;;;12.90;99.90;;;;;;4976629;28;20511;-79
2023/10/04 06:55:23;;;;;;;5.03;1.02;;;13.00;99.90;;;;;;4969147;28;20035;-80
2023/10/04 06:57:50;;;;;;;3.30;1.10;;;13.10;99.90;;;;;;4966488;28;20043;-80
2023/10/04 07:00:18;;;;;;;2.22;0.98;;;13.30;99.90;;;;;;4979532;28;20476;-80
2023/10/04 07:02:58;;;;;;;0.60;0.57;;;13.30;99.90;;;;;;4968575;28;20046;-79
2023/10/04 07:05:26;;;;;;;1.02;1.02;;;13.50;99.90;;;;;;4963490;28;20045;-80
2023/10/04 07:07:58;;;;;;;0.75;0.75;;;13.60;99.90;;;;;;4952520;28;20046;-80
2023/10/04 07:10:28;;;;;;;1.10;1.05;;;13.60;99.90;;;;;;4980531;28;20035;-79
2023/10/04 07:12:57;;;;;;;1.85;0.95;;;13.80;99.90;;;;;;4962397;28;20408;-80
2023/10/04 07:15:28;;;;;;;2.20;1.27;;;13.90;99.90;;;;;;4966026;28;20041;-80
2023/10/04 07:17:54;;;;;;;1.15;0.68;;;14.00;99.90;;;;;;4963824;28;20047;-80
2023/10/04 07:20:24;;;;;;;0.43;0.32;;;14.10;99.90;;;;;;4962482;28;20468;-81
2023/10/04 07:22:59;;;;;;;0.75;0.45;;;14.20;99.90;;;;;;4949511;28;20054;-80
2023/10/04 07:25:27;;;;;;;0.65;0.40;;;14.20;99.90;;;;;;4950688;28;20054;-83
2023/10/04 07:27:55;;;;;;;1.95;1.67;;;14.30;99.90;;;;;;4954621;28;20031;-80
2023/10/04 07:30:22;;;;;;;5.13;1.20;;;14.40;99.90;;;;;;4982679;28;20042;-81
2023/10/04 07:32:48;;;;;;;4.65;0.73;;;14.50;99.90;;;;;;4969723;28;20507;-81
2023/10/04 07:35:19;;;;;;;0.38;0.28;;;14.70;99.90;;;;;;4968786;28;20055;-80
2023/10/04 07:37:46;;;;;;;1.25;1.13;;;14.80;99.90;;;;;;4964365;28;20099;-81
2023/10/04 07:40:14;;;;;;;1.85;0.85;;;14.80;99.90;;;;;;4978660;28;20034;-81
2023/10/04 07:42:42;;;;;;;0.90;0.85;;;15.00;99.90;;;;;;4979314;28;20100;-81
2023/10/04 07:45:10;;;;;;;5.28;0.93;;;15.30;99.90;;;;;;4971765;28;20042;-80
2023/10/04 07:47:37;;;;;;;3.22;2.75;;;15.40;99.90;;;;;;4957917;28;20063;-81
2023/10/04 07:50:10;;;;;;;0.40;0.40;;;15.60;99.90;;;;;;4970941;28;20495;-81
2023/10/04 07:52:37;;;;;;;0.73;0.63;;;16.10;99.90;;;;;;4982220;28;20448;-81
2023/10/04 07:55:05;;;;;;;0.20;0.20;;;16.50;99.90;;;;;;4962265;28;20038;-81
2023/10/04 07:57:35;;;;;;;0.40;0.40;;;16.80;99.90;;;;;;4956219;28;20131;-81
2023/10/04 08:00:04;;;;;;;0.35;0.35;;;17.10;99.90;;;;;;4952281;28;20041;-81
2023/10/04 08:02:43;;;;;;;2.72;0.30;;;17.40;99.90;;;;;;4982414;28;20042;-81
2023/10/04 08:05:10;;;;;;;0.10;0.10;;;17.40;99.90;;;;;;4948460;28;20051;-81
2023/10/04 08:07:37;;;;;;;0.57;0.57;;;17.40;99.90;;;;;;4963789;28;20042;-81
2023/10/04 08:10:03;;;;;;;0.50;0.40;;;17.30;99.90;;;;;;4964217;28;20392;-81
2023/10/04 08:12:30;;;;;;;0.55;0.55;;;17.10;99.90;;;;;;4977566;28;20054;-81
2023/10/04 08:15:00;;;;;;;1.05;0.52;;;17.30;99.90;;;;;;4980313;28;20089;-80
2023/10/04 08:17:27;;;;;;;1.33;0.95;;;17.30;99.90;;;;;;4953098;28;20058;-82
2023/10/04 08:19:53;;;;;;;3.30;0.75;;;17.00;99.90;;;;;;4975681;28;20031;-81
2023/10/04 08:22:19;;;;;;;0.40;0.35;;;17.30;99.90;;;;;;4971907;28;20046;-81
2023/10/04 08:24:46;;;;;;;0.25;0.25;;;17.40;99.90;;;;;;4979902;28;20041;-80
2023/10/04 08:27:13;;;;;;;0.82;0.55;;;17.40;99.90;;;;;;4960184;28;20412;-82
2023/10/04 08:29:42;;;;;;;0.20;0.20;;;17.50;99.90;;;;;;4976513;28;20034;-81
2023/10/04 08:32:08;;;;;;;0.40;0.30;;;17.40;99.90;;;;;;4963136;28;20038;-81
2023/10/04 08:34:35;;;;;;;0.35;0.35;;;17.50;99.90;;;;;;4979469;28;20053;-80
2023/10/04 08:37:01;;;;;;;1.63;0.88;;;17.60;99.90;;;;;;4961326;28;20433;-82
2023/10/04 08:39:27;;;;;;;0.60;0.55;;;17.60;99.90;;;;;;4965074;28;20034;-81
2023/10/04 08:41:53;;;;;;;0.13;0.13;;;17.60;99.90;;;;;;4975130;28;20035;-80
2023/10/04 08:44:21;;;;;;;2.45;0.65;;;17.20;99.90;;;;;;4977712;28;20047;-81
2023/10/04 08:46:47;;;;;;;0.95;0.52;;;16.90;99.90;;;;;;4987202;28;20046;-81
2023/10/04 08:49:16;;;;;;;0.73;0.60;;;16.40;99.90;;;;;;4971917;28;20049;-81
2023/10/04 08:51:51;;;;;;;0.63;0.63;;;16.30;99.90;;;;;;4962185;28;20053;-81
2023/10/04 08:54:22;;;;;;;0.52;0.35;;;16.40;99.90;;;;;;4972494;28;20035;-81
2023/10/04 08:56:54;;;;;;;;;;;17.00;99.90;;;;;;4977790;28;20468;-81
2023/10/04 08:59:22;;;;;;;0.20;0.20;;;17.50;99.90;;;;;;4969189;28;19910;-81
2023/10/04 09:01:52;;;;;;;0.10;0.10;;;17.30;99.90;;;;;;4974454;28;20341;-81
2023/10/04 09:04:21;;;;;;;0.80;0.80;;;16.80;99.90;;;;;;4968781;28;20042;-79
2023/10/04 09:06:48;;;;;;;0.10;0.10;;;16.70;99.90;;;;;;4979581;28;20071;-81
2023/10/04 09:09:15;;;;;;;3.97;1.35;;;17.00;99.90;;;;;;4980708;28;20030;-82
2023/10/04 09:11:41;;;;;;;0.85;0.20;;;17.50;99.90;;;;;;4971967;28;20050;-81
2023/10/04 09:14:08;;;;;;;0.73;0.55;;;17.40;99.90;;;;;;4968423;28;20039;-81
2023/10/04 09:16:34;;;;;;;0.20;0.20;;;17.80;99.90;;;;;;4975517;28;20038;-80
2023/10/04 09:19:07;;;;;;;0.30;0.30;;;18.30;99.90;;;;;;4965807;28;20038;-80
2023/10/04 09:21:38;;;;;;;0.32;0.32;;;18.50;99.90;;;;;;4961849;28;20049;-80
2023/10/04 09:24:11;;;;;;;0.35;0.35;;;18.60;99.90;;;;;;4957882;28;20058;-80
2023/10/04 09:26:40;;;;;;;0.15;0.15;;;19.00;99.90;;;;;;4963352;28;20026;-81
2023/10/04 09:29:07;;;;;;;0.40;0.40;;;18.90;99.90;;;;;;4971582;28;20054;-80
2023/10/04 09:31:50;;;;;;;0.40;0.40;;;17.60;99.90;;;;;;4960558;28;20030;-79
2023/10/04 09:34:17;;;;;;;0.13;0.13;;;17.30;99.90;;;;;;4966840;28;20082;-82
2023/10/04 09:36:43;;;;;;;0.35;0.25;;;17.40;99.90;;;;;;4976094;28;20031;-81
2023/10/04 09:39:23;;;;;;;0.32;0.20;;;17.60;99.90;;;;;;4976039;28;20031;-81
2023/10/04 09:41:51;;;;;;;;;;;17.40;99.90;;;;;;4969904;28;20038;-81
2023/10/04 09:44:20;;;;;;;0.30;0.15;;;17.40;99.90;;;;;;4963528;28;20240;-82
2023/10/04 09:46:54;;;;;;;0.50;0.30;;;16.80;99.90;;;;;;4965255;28;20384;-80
2023/10/04 09:49:25;;;;;;;0.63;0.60;;;16.60;99.90;;;;;;4973073;28;20035;-81
2023/10/04 09:51:55;;;;;;;0.50;0.50;;;16.70;99.90;;;;;;4975184;28;20031;-81
2023/10/04 09:54:26;;;;;;;0.15;0.15;;;16.60;99.90;;;;;;4973664;28;20448;-80
2023/10/04 09:56:53;;;;;;;0.50;0.50;;;16.40;99.90;;;;;;4978706;28;20058;-81
2023/10/04 09:59:21;;;;;;;0.35;0.35;;;16.30;99.90;;;;;;4977725;28;20051;-80
2023/10/04 10:01:57;;;;;;;0.75;0.75;;;16.10;99.90;;;;;;4976628;28;20039;-81
2023/10/04 10:04:26;;;;;;;1.85;1.15;;;16.30;99.90;;;;;;4984715;28;20062;-80
2023/10/04 10:07:16;;;;;;;0.63;0.57;;;16.30;99.90;;;;;;4961258;28;20054;-81
2023/10/04 10:10:01;;;;;;;0.10;0.10;;;16.60;99.90;;;;;;4985029;28;20030;-80
2023/10/04 10:12:30;;;;;;;0.35;0.35;;;16.80;99.90;;;;;;4986629;28;20361;-80
2023/10/04 10:15:00;;;;;;;0.10;0.10;;;17.20;99.90;;;;;;4975213;28;20042;-81
2023/10/04 10:17:28;;;;;;;0.50;0.50;;;17.40;99.90;;;;;;4960463;28;20047;-80
2023/10/04 10:19:55;;;;;;;2.17;0.73;;;17.20;99.90;;;;;;4970823;28;20035;-78
2023/10/04 10:22:21;;;;;;;1.00;0.90;;;16.60;99.90;;;;;;4987147;28;20030;-80
2023/10/04 10:25:16;;;;;;;9.98;1.45;;;16.40;99.90;;;;;;4976984;28;20035;-80
2023/10/04 10:27:43;;;;;;;2.45;0.77;;;16.00;53.10;;;;;;4970229;28;20369;-80
2023/10/04 10:30:12;;;;;;;0.98;0.20;;;16.30;99.90;;;;;;4973069;28;20030;-80
2023/10/04 10:32:54;;;;;;;0.68;0.68;;;16.50;99.90;;;;;;4982557;28;20247;-81
2023/10/04 10:35:58;;;;;;;0.80;0.52;;;16.70;99.90;;;;;;4978044;28;20070;-80
2023/10/04 10:38:43;;;;;;;0.98;0.47;;;17.10;99.90;;;;;;4961207;28;20042;-80
2023/10/04 10:41:34;;;;;;;0.52;0.52;;;17.40;69.90;;;;;;4976962;28;20380;-80
2023/10/04 10:44:23;;;;;;;0.90;0.63;;;17.50;1.00;;;;;;4934410;28;20489;-80
2023/10/04 10:47:00;;;;;;;1.13;0.73;;;17.60;1.40;;;;;;4962953;28;20053;-81
2023/10/04 10:49:50;;;;;;;0.38;0.38;;;17.50;1.00;;;;;;4975709;28;20037;-80
2023/10/04 10:52:25;;;;;;;0.65;0.65;;;17.40;1.00;;;;;;4956968;28;20043;-80
2023/10/04 10:54:52;;;;;;;0.88;0.80;;;17.00;1.00;;;;;;4979290;28;20392;-79
2023/10/04 10:57:29;;;;;;;1.00;0.80;;;17.00;1.00;;;;;;4973663;28;20039;-80
2023/10/04 11:00:11;;;;;;;0.68;0.55;;;17.10;99.90;;;;;;4977448;28;20235;-79
2023/10/04 11:02:37;;;;;;;0.73;0.35;;;16.90;99.90;;;;;;4974743;28;20491;-79
2023/10/04 11:05:06;;;;;;;0.10;0.10;;;16.60;99.90;;;;;;4968444;28;20135;-79
2023/10/04 11:07:33;;;;;;;2.60;0.85;;;16.60;99.90;;;;;;4978750;28;20034;-79
2023/10/04 11:09:59;;;;;;;0.10;0.10;;;16.90;99.90;;;;;;4976846;28;20388;-79
2023/10/04 11:12:25;;;;;;;4.03;0.20;;;17.30;99.90;;;;;;4967634;28;20040;-79
2023/10/04 11:14:52;;;;;;;0.10;0.10;;;17.60;99.90;;;;;;4983171;28;20383;-79
2023/10/04 11:17:20;;;;;;;1.75;0.32;;;17.80;99.90;;;;;;4978421;28;20031;-78
2023/10/04 11:19:50;;;;;;;0.40;0.32;;;17.80;99.90;;;;;;4979329;28;20031;-79
2023/10/04 11:22:17;;;;;;;0.47;0.47;;;17.60;97.70;;;;;;4967789;28;20058;-79
2023/10/04 11:24:44;;;;;;;0.28;0.17;;;17.40;99.90;;;;;;4970710;28;20030;-79
2023/10/04 11:27:11;;;;;;;0.40;0.40;;;17.10;99.90;;;;;;4976196;28;20035;-79
2023/10/04 11:29:38;;;;;;;0.10;0.10;;;17.00;99.90;;;;;;4972858;28;20035;-79
2023/10/04 11:32:06;;;;;;;0.32;0.28;;;17.10;99.90;;;;;;4973520;28;20346;-80
2023/10/04 11:34:37;;;;;;;1.98;0.93;;;17.20;99.90;;;;;;4974561;28;20054;-79
2023/10/04 11:37:03;;;;;;;;;;;17.20;99.90;;;;;;4985381;28;20413;-79
2023/10/04 11:39:35;;;;;;;0.43;0.43;;;16.90;99.90;;;;;;4976651;28;19925;-80
2023/10/04 11:42:17;;;;;;;0.40;0.40;;;16.80;99.90;;;;;;4975045;28;20050;-79
2023/10/04 11:44:43;;;;;;;0.10;0.00;;;16.90;99.90;;;;;;4964711;28;20098;-79
2023/10/04 11:47:09;;;;;;;0.10;0.10;;;17.00;99.90;;;;;;4976752;28;20039;-79
2023/10/04 11:49:38;;;;;;;0.10;0.10;;;17.00;99.90;;;;;;4949599;28;20046;-79
2023/10/04 11:52:06;;;;;;;0.10;0.10;;;16.90;99.90;;;;;;4977234;28;20495;-79
2023/10/04 11:54:44;;;;;;;0.13;0.13;;;17.00;99.90;;;;;;4958247;28;20031;-79
2023/10/04 11:57:11;;;;;;;2.72;0.85;;;17.30;92.50;;;;;;4973344;28;20054;-79
2023/10/04 11:59:39;;;;;;;3.63;0.20;;;17.50;23.00;;;;;;4950760;28;20031;-79
2023/10/04 12:02:06;;;;;;;0.40;0.30;;;17.40;1.00;;;;;;4964888;28;20404;-80
2023/10/04 12:04:33;;;;;;;1.45;0.73;;;17.50;1.00;;;;;;4969016;28;20043;-79
2023/10/04 12:07:02;;;;;;;0.10;0.10;;;17.70;1.00;;;;;;4972747;28;20039;-79
2023/10/04 12:09:31;;;;;;;0.43;0.38;;;18.00;1.00;;;;;;4981241;28;20387;-79
2023/10/04 12:11:58;;;;;;;1.27;0.85;;;18.20;99.90;;;;;;4975536;28;20045;-79
2023/10/04 12:14:26;;;;;;;0.45;0.45;;;18.20;99.90;;;;;;4963543;28;20038;-78
2023/10/04 12:16:52;;;;;;;1.60;0.45;;;18.30;99.90;;;;;;4963955;28;20057;-78
2023/10/04 12:19:19;;;;;;;1.40;0.75;;;18.10;99.90;;;;;;4979301;28;20053;-78
2023/10/04 12:21:45;;;;;;;2.20;0.38;;;18.10;99.90;;;;;;4976805;28;20034;-79
2023/10/04 12:24:11;;;;;;;0.22;0.22;;;18.00;99.90;;;;;;4962286;28;20030;-79
2023/10/04 12:26:37;;;;;;;3.90;1.85;;;18.10;99.90;;;;;;4969505;28;20038;-79
2023/10/04 12:29:04;;;;;;;1.42;1.33;;;18.20;99.90;;;;;;4958715;28;20046;-79
2023/10/04 12:31:31;;;;;;;0.43;0.40;;;18.30;99.90;;;;;;4980301;28;20037;-79
2023/10/04 12:33:57;;;;;;;2.65;0.38;;;18.50;99.90;;;;;;4971619;28;20061;-79
2023/10/04 12:36:25;;;;;;;1.45;0.60;;;18.50;99.90;;;;;;4964955;28;20125;-79
2023/10/04 12:38:51;;;;;;;0.40;0.40;;;18.40;99.90;;;;;;4960468;28;20058;-78
2023/10/04 12:41:21;;;;;;;1.63;1.05;;;18.60;99.90;;;;;;4983204;28;20042;-79
2023/10/04 12:43:47;;;;;;;3.72;0.95;;;18.50;99.90;;;;;;4960072;28;20042;-79
2023/10/04 12:46:14;;;;;;;1.27;1.05;;;18.30;99.90;;;;;;4957202;28;20031;-78
2023/10/04 12:48:40;;;;;;;1.10;0.52;;;18.40;99.90;;;;;;4964960;28;20042;-79
2023/10/04 12:51:06;;;;;;;1.05;0.52;;;18.40;99.90;;;;;;4970431;28;20046;-79
2023/10/04 12:53:33;;;;;;;0.40;0.30;;;18.10;99.90;;;;;;4976175;28;20026;-79
2023/10/04 12:55:59;;;;;;;1.55;0.77;;;18.20;99.90;;;;;;4966901;28;20041;-79
2023/10/04 12:58:26;;;;;;;4.47;0.55;;;18.10;99.90;;;;;;4971323;28;20035;-79
2023/10/04 13:00:53;;;;;;;0.75;0.75;;;18.20;99.90;;;;;;4966452;28;20038;-79
2023/10/04 13:03:19;;;;;;;1.45;0.90;;;18.30;99.90;;;;;;4979628;28;20042;-79